Time;durP1;ratioP1;P1;durP2;ratioP2;P2;SDS_P1;SDS_P2;PMS_P1;PMS_P2;Temp;Humidity;BMP_temperature;BMP_pressure;BME280_temperature;BME280_humidity;BME280_pressure;Samples;Min_cycle;Max_cycle;Signal;HPM_P1;HPM_P2
2022/05/16 00:00:16;;;;;;;303.70;118.32;;;13.10;99.90;;;;;;4998855;28;20050;-83
2022/05/16 00:02:44;;;;;;;365.63;119.45;;;13.10;99.90;;;;;;4999084;28;20052;-83
2022/05/16 00:05:12;;;;;;;281.75;114.40;;;13.00;99.90;;;;;;4965486;28;20050;-83
2022/05/16 00:07:40;;;;;;;325.23;114.93;;;13.00;99.90;;;;;;5015761;28;20057;-83
2022/05/16 00:10:08;;;;;;;340.42;119.05;;;13.00;99.90;;;;;;4998331;28;20050;-83
2022/05/16 00:12:37;;;;;;;342.13;116.72;;;13.00;99.90;;;;;;4997401;28;20061;-83
2022/05/16 00:15:08;;;;;;;339.70;121.88;;;12.90;99.90;;;;;;5016030;28;20056;-83
2022/05/16 00:17:36;;;;;;;355.35;127.88;;;12.90;99.90;;;;;;4997965;28;20481;-83
2022/05/16 00:20:06;;;;;;;343.30;127.38;;;12.90;99.90;;;;;;5015203;28;20054;-83
2022/05/16 00:22:35;;;;;;;294.92;122.70;;;12.90;99.90;;;;;;4998356;28;20053;-82
2022/05/16 00:25:04;;;;;;;340.77;132.77;;;12.80;99.90;;;;;;4997794;28;20046;-82
2022/05/16 00:27:34;;;;;;;427.98;140.88;;;12.80;99.90;;;;;;4998778;28;20050;-82
2022/05/16 00:30:08;;;;;;;354.58;143.05;;;12.80;99.90;;;;;;4998061;28;20050;-82
2022/05/16 00:32:36;;;;;;;437.60;148.35;;;12.80;99.90;;;;;;5014593;28;20053;-83
2022/05/16 00:35:06;;;;;;;370.65;143.07;;;12.80;99.90;;;;;;5014507;28;20373;-83
2022/05/16 00:37:33;;;;;;;411.42;149.32;;;12.90;99.90;;;;;;4997550;28;20369;-83
2022/05/16 00:40:04;;;;;;;478.02;147.88;;;12.90;99.90;;;;;;4997969;28;20064;-83
2022/05/16 00:42:32;;;;;;;381.45;137.90;;;12.90;99.90;;;;;;4981687;28;20053;-83
2022/05/16 00:45:00;;;;;;;373.63;137.43;;;12.90;99.90;;;;;;5014975;28;20054;-83
2022/05/16 00:47:27;;;;;;;401.15;134.85;;;12.90;99.90;;;;;;5015103;28;20100;-83
2022/05/16 00:49:56;;;;;;;361.48;134.77;;;12.90;99.90;;;;;;5014899;28;20061;-83
2022/05/16 00:52:40;;;;;;;399.52;143.32;;;12.90;99.90;;;;;;5014336;28;20049;-83
2022/05/16 00:55:30;;;;;;;441.02;142.73;;;12.80;99.90;;;;;;4998149;28;20045;-83
2022/05/16 00:58:07;;;;;;;380.40;136.98;;;12.80;99.90;;;;;;5013441;28;20038;-84
2022/05/16 01:00:38;;;;;;;374.30;141.30;;;12.80;99.90;;;;;;4998076;28;20381;-83
2022/05/16 01:06:00;;;;;;;373.65;136.35;;;12.70;99.90;;;;;;5014102;28;20061;-84
2022/05/16 01:08:31;;;;;;;418.48;145.48;;;12.60;99.90;;;;;;4997724;28;20046;-84
2022/05/16 01:11:03;;;;;;;412.75;147.07;;;12.60;99.90;;;;;;4996936;28;20042;-84
2022/05/16 01:13:31;;;;;;;433.25;150.45;;;12.60;99.90;;;;;;5015358;28;20041;-84
2022/05/16 01:15:59;;;;;;;;;;;12.60;99.90;;;;;;5015333;28;20050;-83
2022/05/16 01:18:29;;;;;;;409.60;140.13;;;12.60;99.90;;;;;;5014488;28;19926;-83
2022/05/16 01:21:05;;;;;;;451.88;145.18;;;12.60;99.90;;;;;;5014840;28;20050;-83
2022/05/16 01:23:41;;;;;;;412.33;138.02;;;12.50;99.90;;;;;;5015270;28;20456;-83
2022/05/16 01:26:13;;;;;;;417.80;144.98;;;12.40;99.90;;;;;;4997016;28;20488;-83
2022/05/16 01:28:41;;;;;;;423.98;144.30;;;12.40;99.90;;;;;;4997608;28;20118;-83
2022/05/16 01:31:08;;;;;;;442.40;147.80;;;12.40;99.90;;;;;;5014130;28;20075;-83
2022/05/16 01:33:37;;;;;;;415.88;144.45;;;12.30;99.90;;;;;;4981465;28;20046;-83
2022/05/16 01:36:05;;;;;;;437.13;149.00;;;12.30;99.90;;;;;;5014992;28;20052;-83
2022/05/16 01:38:33;;;;;;;445.45;147.20;;;12.30;99.90;;;;;;5014002;28;20038;-83
2022/05/16 01:41:04;;;;;;;451.73;148.68;;;12.20;99.90;;;;;;4997878;28;20046;-83
2022/05/16 01:43:35;;;;;;;427.30;153.27;;;12.20;99.90;;;;;;5014717;28;20046;-83
2022/05/16 01:46:04;;;;;;;447.40;155.02;;;12.20;99.90;;;;;;4997218;28;20369;-83
2022/05/16 01:48:36;;;;;;;439.92;150.13;;;12.20;99.90;;;;;;5014714;28;20046;-83
2022/05/16 01:51:07;;;;;;;433.98;149.35;;;12.10;99.90;;;;;;4997037;28;20046;-83
2022/05/16 01:53:35;;;;;;;489.15;150.65;;;12.10;99.90;;;;;;5014813;28;20050;-83
2022/05/16 01:56:04;;;;;;;;;;;12.10;99.90;;;;;;4997921;28;20042;-83
2022/05/16 01:58:31;;;;;;;395.23;141.38;;;12.10;99.90;;;;;;5013776;28;19921;-83
2022/05/16 02:00:59;;;;;;;457.90;154.27;;;12.10;99.90;;;;;;5014310;28;20053;-83
2022/05/16 02:03:28;;;;;;;470.00;150.95;;;12.00;99.90;;;;;;4997701;28;20046;-83
2022/05/16 02:05:56;;;;;;;541.40;157.10;;;12.00;99.90;;;;;;5013589;28;20046;-83
2022/05/16 02:08:24;;;;;;;506.65;154.55;;;12.00;99.90;;;;;;4997730;28;20053;-83
2022/05/16 02:10:52;;;;;;;548.67;158.38;;;12.00;99.90;;;;;;5000006;28;20050;-83
2022/05/16 02:13:19;;;;;;;497.88;154.65;;;12.00;99.90;;;;;;5017870;28;20065;-83
2022/05/16 02:15:47;;;;;;;520.35;159.70;;;12.00;99.90;;;;;;5018492;28;20045;-83
2022/05/16 02:18:17;;;;;;;489.33;160.25;;;11.90;99.90;;;;;;5017358;28;20050;-82
2022/05/16 02:20:45;;;;;;;501.58;169.82;;;11.90;99.90;;;;;;5018127;28;20056;-82
2022/05/16 02:25:58;;;;;;;541.63;181.05;;;11.90;99.90;;;;;;5017012;28;20138;-83
2022/05/16 02:28:28;;;;;;;526.33;183.20;;;12.00;99.90;;;;;;5000598;28;20065;-82
2022/05/16 02:30:56;;;;;;;560.90;179.63;;;12.00;99.90;;;;;;4997672;28;20049;-82
2022/05/16 02:33:23;;;;;;;;;;;12.00;99.90;;;;;;4981628;28;20046;-82
2022/05/16 02:35:51;;;;;;;565.13;169.00;;;12.20;99.90;;;;;;4997535;28;19928;-83
2022/05/16 02:38:20;;;;;;;518.40;161.27;;;12.00;99.90;;;;;;4979982;28;20054;-82
2022/05/16 02:40:48;;;;;;;492.17;165.35;;;12.00;99.90;;;;;;4997628;28;20065;-82
2022/05/16 02:43:15;;;;;;;498.40;166.98;;;12.00;99.90;;;;;;4997807;28;20042;-82
2022/05/16 02:45:43;;;;;;;550.25;168.65;;;12.00;99.90;;;;;;4997094;28;20050;-82
2022/05/16 02:48:11;;;;;;;466.25;158.60;;;12.00;99.90;;;;;;4996657;28;20050;-82
2022/05/16 02:50:38;;;;;;;509.63;164.27;;;12.00;99.90;;;;;;4997728;28;20046;-82
2022/05/16 02:53:07;;;;;;;565.38;163.82;;;12.00;99.90;;;;;;5012260;28;20062;-83
2022/05/16 02:55:34;;;;;;;451.30;156.30;;;12.00;99.90;;;;;;4997561;28;20046;-82
2022/05/16 02:58:02;;;;;;;519.88;171.27;;;12.00;99.90;;;;;;4995988;28;20053;-83
2022/05/16 03:00:30;;;;;;;497.88;169.27;;;12.00;99.90;;;;;;4998057;28;20038;-83
2022/05/16 03:02:57;;;;;;;515.22;166.30;;;12.00;99.90;;;;;;4997433;28;20039;-82
2022/05/16 03:05:25;;;;;;;518.38;160.27;;;12.10;99.90;;;;;;4996601;28;20046;-83
2022/05/16 03:07:53;;;;;;;473.08;152.13;;;12.00;99.90;;;;;;4998118;28;20057;-83
2022/05/16 03:10:23;;;;;;;490.42;160.23;;;12.00;99.90;;;;;;4996740;28;20061;-82
2022/05/16 03:12:51;;;;;;;498.77;162.60;;;12.10;99.90;;;;;;4996557;28;20050;-83
2022/05/16 03:15:19;;;;;;;492.08;163.68;;;12.10;99.90;;;;;;4996665;28;20050;-82
2022/05/16 03:17:48;;;;;;;543.40;167.30;;;12.10;99.90;;;;;;4996604;28;20053;-82
2022/05/16 03:20:16;;;;;;;529.38;158.65;;;12.20;99.90;;;;;;4995226;28;20046;-82
2022/05/16 03:22:43;;;;;;;443.50;152.70;;;12.20;99.90;;;;;;4997083;28;20046;-83
2022/05/16 03:25:11;;;;;;;503.27;160.68;;;12.20;99.90;;;;;;4996676;28;20046;-82
2022/05/16 03:27:39;;;;;;;504.63;161.43;;;12.30;99.90;;;;;;4996580;28;20054;-82
2022/05/16 03:30:08;;;;;;;;;;;12.20;99.90;;;;;;4996380;28;20385;-82
2022/05/16 03:32:36;;;;;;;456.23;151.40;;;12.20;99.90;;;;;;4995378;28;19922;-83
2022/05/16 03:35:05;;;;;;;477.73;152.43;;;12.20;99.90;;;;;;4996728;28;20046;-83
2022/05/16 03:37:33;;;;;;;512.35;151.52;;;12.20;99.90;;;;;;5011964;28;20117;-82
2022/05/16 03:42:46;;;;;;;497.45;145.52;;;12.20;99.90;;;;;;4996680;28;20061;-82
2022/05/16 03:45:15;;;;;;;;;;;12.20;99.90;;;;;;4995843;28;20057;-83
2022/05/16 03:47:43;;;;;;;480.05;141.23;;;12.10;99.90;;;;;;4997142;28;19921;-82
2022/05/16 03:50:11;;;;;;;416.90;143.07;;;12.10;99.90;;;;;;4997006;28;20369;-82
2022/05/16 03:52:39;;;;;;;453.77;146.85;;;12.00;99.90;;;;;;4995836;28;20057;-82
2022/05/16 03:55:12;;;;;;;585.08;154.82;;;12.00;99.90;;;;;;4996670;28;20461;-82
2022/05/16 03:57:41;;;;;;;455.58;156.25;;;12.00;99.90;;;;;;4995803;28;20053;-82
2022/05/16 04:00:12;;;;;;;465.13;159.98;;;12.10;99.90;;;;;;4996321;28;20138;-82
2022/05/16 04:02:41;;;;;;;482.63;161.57;;;12.00;99.90;;;;;;4996001;28;20046;-82
2022/05/16 04:05:10;;;;;;;500.33;168.18;;;12.00;99.90;;;;;;4995542;28;20057;-82
2022/05/16 04:07:38;;;;;;;461.92;161.85;;;12.00;99.90;;;;;;4996181;28;20046;-82
2022/05/16 04:10:06;;;;;;;525.95;169.20;;;12.00;99.90;;;;;;4995886;28;20065;-83
2022/05/16 04:12:34;;;;;;;491.25;164.07;;;12.00;99.90;;;;;;4995549;28;20065;-82
2022/05/16 04:15:02;;;;;;;523.90;158.60;;;12.00;99.90;;;;;;4995471;28;20067;-82
2022/05/16 04:17:30;;;;;;;;;;;12.00;99.90;;;;;;4996289;28;20057;-82
2022/05/16 04:19:57;;;;;;;430.27;149.60;;;12.00;99.90;;;;;;4995186;28;19932;-82
2022/05/16 04:22:25;;;;;;;563.53;160.57;;;11.90;99.90;;;;;;4995982;28;20053;-82
2022/05/16 04:24:53;;;;;;;505.55;154.60;;;11.90;99.90;;;;;;4995307;28;20047;-82
2022/05/16 04:27:20;;;;;;;513.33;155.23;;;11.90;99.90;;;;;;4995572;28;20446;-82
2022/05/16 04:29:48;;;;;;;470.20;150.63;;;11.90;99.90;;;;;;4995009;28;20054;-82
2022/05/16 04:32:15;;;;;;;483.25;153.20;;;11.90;99.90;;;;;;4995155;28;20462;-82
2022/05/16 04:34:43;;;;;;;478.98;157.50;;;11.90;99.90;;;;;;4994813;28;20050;-82
2022/05/16 04:37:11;;;;;;;508.60;163.75;;;11.90;99.90;;;;;;4995638;28;20046;-82
2022/05/16 04:39:40;;;;;;;494.73;165.50;;;11.90;99.90;;;;;;4994077;28;20057;-82
2022/05/16 04:44:54;;;;;;;490.13;156.80;;;12.00;99.90;;;;;;4995000;28;20050;-82
2022/05/16 04:47:22;;;;;;;494.45;152.38;;;12.10;99.90;;;;;;4995747;28;20042;-82
2022/05/16 04:49:50;;;;;;;476.05;150.52;;;12.10;99.90;;;;;;4995533;28;20501;-82
2022/05/16 04:52:18;;;;;;;459.58;146.75;;;12.10;99.90;;;;;;4995063;28;20042;-82
2022/05/16 04:54:48;;;;;;;453.60;148.50;;;12.10;99.90;;;;;;4995618;28;20165;-82
2022/05/16 04:57:16;;;;;;;424.45;144.60;;;12.10;99.90;;;;;;4995686;28;20045;-82
2022/05/16 04:59:47;;;;;;;420.85;142.02;;;12.10;99.90;;;;;;4994886;28;20053;-83
2022/05/16 05:02:16;;;;;;;413.48;141.52;;;12.20;99.90;;;;;;4995764;28;20038;-83
2022/05/16 05:04:44;;;;;;;423.55;142.80;;;12.20;99.90;;;;;;4994395;28;20061;-82
2022/05/16 05:07:12;;;;;;;401.10;145.43;;;11.90;99.90;;;;;;4995030;28;20504;-82
2022/05/16 05:15:17;;;;;;;351.08;129.90;;;12.50;99.90;;;;;;4995737;28;20046;-81
2022/05/16 05:17:47;;;;;;;256.85;101.22;;;12.50;99.90;;;;;;4994444;28;20071;-82
2022/05/16 05:20:15;;;;;;;204.07;82.65;;;12.60;99.90;;;;;;4995398;28;20062;-81
2022/05/16 05:22:45;;;;;;;223.18;88.20;;;12.60;99.90;;;;;;4995713;28;20054;-81
2022/05/16 05:25:18;;;;;;;174.88;75.43;;;12.70;99.90;;;;;;4994188;28;20065;-81
2022/05/16 05:27:48;;;;;;;198.77;78.30;;;12.90;99.90;;;;;;4994888;28;20050;-81
2022/05/16 05:30:19;;;;;;;161.30;67.82;;;13.00;99.90;;;;;;5009529;28;20061;-81
2022/05/16 05:32:47;;;;;;;193.50;75.43;;;13.20;99.90;;;;;;5013678;28;20060;-81
2022/05/16 05:35:16;;;;;;;;;;;13.30;99.90;;;;;;5015043;28;20050;-81
2022/05/16 05:37:45;;;;;;;150.40;63.85;;;13.50;99.90;;;;;;4996813;28;19929;-82
2022/05/16 05:40:14;;;;;;;163.05;66.28;;;13.70;99.90;;;;;;5014825;28;20042;-82
2022/05/16 05:42:42;;;;;;;132.10;60.53;;;13.80;99.90;;;;;;5014822;28;20045;-81
2022/05/16 05:45:10;;;;;;;136.52;60.15;;;13.90;99.90;;;;;;5000226;28;20060;-81
2022/05/16 05:47:38;;;;;;;106.32;50.97;;;14.10;99.90;;;;;;5001009;28;20050;-81
2022/05/16 05:50:08;;;;;;;112.43;51.15;;;14.20;99.90;;;;;;5001463;28;20049;-82
2022/05/16 05:52:36;;;;;;;96.15;46.25;;;14.30;99.90;;;;;;5017639;28;20041;-81
2022/05/16 05:55:06;;;;;;;91.82;44.08;;;14.40;99.90;;;;;;5018203;28;20042;-82
2022/05/16 05:57:34;;;;;;;80.97;39.33;;;14.40;99.90;;;;;;5017881;28;20049;-81
2022/05/16 06:00:05;;;;;;;77.47;36.85;;;14.50;99.90;;;;;;5000904;28;20354;-81
2022/05/16 06:02:33;;;;;;;84.07;37.67;;;14.50;99.90;;;;;;5018950;28;20049;-81
2022/05/16 06:05:01;;;;;;;74.43;34.80;;;14.50;99.90;;;;;;5000130;28;20054;-81
2022/05/16 06:07:28;;;;;;;70.22;34.35;;;14.50;99.90;;;;;;5018076;28;20045;-81
2022/05/16 06:09:57;;;;;;;70.75;31.33;;;14.50;99.90;;;;;;5018400;28;20042;-81
2022/05/16 06:12:28;;;;;;;64.68;28.75;;;14.60;99.90;;;;;;5000486;28;20050;-82
2022/05/16 06:14:55;;;;;;;68.90;26.75;;;14.60;99.90;;;;;;5000953;28;20483;-81
2022/05/16 06:17:23;;;;;;;66.18;27.42;;;14.60;99.90;;;;;;5018289;28;20053;-81
2022/05/16 06:19:51;;;;;;;64.72;25.88;;;14.70;99.90;;;;;;5000529;28;20049;-81
2022/05/16 06:22:19;;;;;;;70.32;28.52;;;14.70;99.90;;;;;;5017784;28;20061;-81
2022/05/16 06:27:35;;;;;;;69.88;28.38;;;14.70;99.90;;;;;;5000439;28;20053;-81
2022/05/16 06:30:03;;;;;;;77.88;29.63;;;14.80;99.90;;;;;;5017583;28;20050;-81
2022/05/16 06:32:36;;;;;;;72.05;28.88;;;14.80;99.90;;;;;;5000405;28;20046;-81
2022/05/16 06:35:04;;;;;;;81.80;30.65;;;14.80;99.90;;;;;;5018075;28;20052;-81
2022/05/16 06:37:31;;;;;;;74.43;30.75;;;14.80;99.90;;;;;;5000130;28;20357;-81
2022/05/16 06:40:00;;;;;;;79.38;33.55;;;14.80;99.90;;;;;;5017772;28;20038;-81
2022/05/16 06:42:28;;;;;;;79.10;34.58;;;14.90;99.90;;;;;;5017495;28;20077;-81
2022/05/16 06:44:57;;;;;;;90.10;37.33;;;14.80;99.90;;;;;;4983971;28;20052;-81
2022/05/16 06:47:24;;;;;;;93.97;40.38;;;14.80;99.90;;;;;;5017169;28;20381;-81
2022/05/16 06:49:52;;;;;;;92.07;42.22;;;14.80;99.90;;;;;;4983924;28;20369;-81
2022/05/16 06:52:24;;;;;;;93.57;41.10;;;14.80;99.90;;;;;;4999618;28;20046;-81
2022/05/16 06:54:54;;;;;;;111.80;45.63;;;14.80;99.90;;;;;;5017158;28;20487;-81
2022/05/16 06:57:22;;;;;;;111.05;46.25;;;14.80;99.90;;;;;;5017954;28;20456;-82
2022/05/16 06:59:50;;;;;;;99.95;43.85;;;14.80;99.90;;;;;;4998857;28;20062;-81
2022/05/16 07:02:18;;;;;;;111.00;45.67;;;14.80;99.90;;;;;;4983738;28;20389;-81
2022/05/16 07:04:45;;;;;;;93.57;42.70;;;14.80;99.90;;;;;;5016164;28;20054;-80
2022/05/16 07:07:21;;;;;;;85.05;42.05;;;14.80;99.90;;;;;;4983460;28;20060;-81
2022/05/16 07:09:49;;;;;;;90.07;38.33;;;14.80;99.90;;;;;;5016758;28;20421;-80
2022/05/16 07:12:17;;;;;;;78.72;37.58;;;14.80;99.90;;;;;;5016309;28;20472;-81
2022/05/16 07:14:45;;;;;;;68.63;35.75;;;14.80;99.90;;;;;;4999272;28;20365;-81
2022/05/16 07:17:13;;;;;;;79.72;38.03;;;14.90;99.90;;;;;;4999526;28;20050;-81
2022/05/16 07:19:40;;;;;;;64.40;33.30;;;14.90;99.90;;;;;;5015876;28;20461;-82
2022/05/16 07:22:17;;;;;;;71.28;34.13;;;15.00;99.90;;;;;;4999567;28;20053;-81
2022/05/16 07:24:45;;;;;;;56.20;30.40;;;15.10;99.90;;;;;;4998965;28;20050;-82
2022/05/16 07:29:59;;;;;;;49.42;25.75;;;15.20;99.90;;;;;;5015895;28;20473;-81
2022/05/16 07:32:41;;;;;;;46.00;24.02;;;15.30;99.90;;;;;;4997936;28;20050;-81
2022/05/16 07:35:14;;;;;;;49.53;22.10;;;15.40;99.90;;;;;;4999453;28;20050;-80
2022/05/16 07:37:42;;;;;;;35.60;19.48;;;15.50;99.90;;;;;;5015058;28;20042;-80
2022/05/16 07:40:10;;;;;;;36.20;18.33;;;15.60;99.90;;;;;;5016230;28;20053;-81
2022/05/16 07:42:38;;;;;;;34.70;19.77;;;15.70;99.90;;;;;;4998854;28;20373;-79
2022/05/16 07:45:07;;;;;;;35.33;18.85;;;15.80;99.90;;;;;;4997878;28;20046;-81
2022/05/16 07:47:35;;;;;;;40.30;18.90;;;15.90;99.90;;;;;;4998719;28;20346;-80
2022/05/16 07:50:03;;;;;;;39.72;18.80;;;15.90;99.90;;;;;;5015823;28;20041;-80
2022/05/16 07:52:31;;;;;;;40.83;19.75;;;16.00;99.90;;;;;;4997865;28;20045;-79
2022/05/16 07:54:59;;;;;;;37.65;19.77;;;16.10;99.90;;;;;;5016585;28;20460;-82
2022/05/16 07:57:26;;;;;;;33.92;17.95;;;16.10;99.90;;;;;;5015752;28;20042;-80
2022/05/16 07:59:54;;;;;;;39.63;19.77;;;16.20;99.90;;;;;;4982822;28;20042;-80
2022/05/16 08:02:22;;;;;;;45.80;21.13;;;16.30;99.90;;;;;;4999371;28;20037;-79
2022/05/16 08:04:49;;;;;;;35.10;17.77;;;16.40;99.90;;;;;;5015315;28;20053;-79
2022/05/16 08:07:17;;;;;;;30.10;15.00;;;16.60;99.90;;;;;;5015453;28;20065;-79
2022/05/16 08:12:38;;;;;;;29.33;14.38;;;16.70;99.90;;;;;;5015113;28;20050;-79
2022/05/16 08:15:06;;;;;;;32.88;13.95;;;16.80;99.90;;;;;;5016148;28;20061;-79
2022/05/16 08:17:34;;;;;;;22.02;10.65;;;16.80;99.90;;;;;;5014730;28;20049;-79
2022/05/16 08:20:05;;;;;;;24.10;11.55;;;16.80;99.90;;;;;;4999006;28;20045;-79
2022/05/16 08:22:33;;;;;;;24.25;11.05;;;16.80;99.90;;;;;;5015698;28;20092;-80
2022/05/16 08:25:01;;;;;;;23.65;10.57;;;16.90;99.90;;;;;;4997552;28;20060;-80
2022/05/16 08:27:33;;;;;;;19.20;10.05;;;16.90;99.90;;;;;;5015778;28;20050;-79
2022/05/16 08:30:02;;;;;;;26.77;9.80;;;16.80;99.90;;;;;;5015204;28;20053;-79
2022/05/16 08:32:30;;;;;;;24.63;10.25;;;16.80;99.90;;;;;;4997562;28;20056;-78
2022/05/16 08:35:00;;;;;;;17.33;8.48;;;16.70;99.90;;;;;;5015590;28;20049;-80
2022/05/16 08:40:15;;;;;;;21.65;9.70;;;16.60;99.90;;;;;;5014272;28;20049;-79
2022/05/16 08:43:13;;;;;;;21.70;9.63;;;16.70;99.90;;;;;;5015216;28;20056;-79
2022/05/16 08:46:00;;;;;;;12.73;7.80;;;17.00;99.90;;;;;;5014693;28;20065;-79
2022/05/16 08:48:33;;;;;;;17.85;8.07;;;17.20;99.90;;;;;;4998185;28;20369;-79
2022/05/16 08:51:21;;;;;;;16.98;8.07;;;17.40;99.90;;;;;;4998079;28;20049;-79
2022/05/16 08:54:15;;;;;;;18.40;8.65;;;17.40;99.90;;;;;;5015161;28;20117;-79
2022/05/16 08:56:45;;;;;;;14.63;7.70;;;17.40;99.90;;;;;;5015571;28;20364;-79
2022/05/16 08:59:21;;;;;;;17.55;7.63;;;17.50;99.90;;;;;;4997237;28;20048;-79
2022/05/16 09:01:52;;;;;;;12.57;7.80;;;17.60;99.90;;;;;;5014913;28;20041;-78
2022/05/16 09:04:31;;;;;;;17.73;6.70;;;17.80;99.90;;;;;;5014735;28;20369;-81
2022/05/16 09:07:36;;;;;;;14.00;7.43;;;17.90;99.90;;;;;;5014965;28;20053;-80
2022/05/16 09:10:08;;;;;;;14.65;5.88;;;18.20;99.90;;;;;;4978059;28;20058;-83
2022/05/16 09:12:50;;;;;;;14.88;6.03;;;18.40;99.90;;;;;;4997185;28;20046;-82
2022/05/16 09:15:38;;;;;;;11.18;5.40;;;18.70;99.90;;;;;;5014888;28;20052;-82
2022/05/16 09:18:42;;;;;;;14.43;5.75;;;18.80;99.90;;;;;;4998729;28;20441;-82
2022/05/16 09:21:33;;;;;;;16.80;6.05;;;18.90;99.90;;;;;;5019272;28;20457;-83
2022/05/16 09:24:10;;;;;;;12.18;5.47;;;19.10;99.90;;;;;;5019085;28;20056;-82
2022/05/16 09:26:59;;;;;;;14.95;5.40;;;19.10;99.90;;;;;;5019367;28;20050;-82
2022/05/16 09:29:37;;;;;;;12.90;5.57;;;19.10;99.90;;;;;;5001621;28;20058;-82
2022/05/16 09:32:28;;;;;;;15.73;4.60;;;19.20;99.90;;;;;;5018349;28;20065;-82
2022/05/16 09:35:00;;;;;;;12.57;4.88;;;19.10;99.90;;;;;;4986405;28;20445;-72
2022/05/16 09:37:28;;;;;;;14.52;4.47;;;19.10;99.90;;;;;;5018155;28;20369;-78
2022/05/16 09:39:56;;;;;;;11.95;4.55;;;19.00;99.90;;;;;;5018086;28;20473;-75
2022/05/16 09:42:25;;;;;;;10.38;4.35;;;19.00;99.90;;;;;;5001481;28;20054;-77
2022/05/16 09:45:09;;;;;;;11.27;4.57;;;19.10;99.90;;;;;;5017322;28;20238;-77
2022/05/16 09:47:40;;;;;;;11.40;4.65;;;19.20;99.90;;;;;;5018194;28;20050;-77
2022/05/16 09:50:14;;;;;;;10.55;4.32;;;19.30;99.90;;;;;;5018426;28;20057;-76
2022/05/16 09:53:01;;;;;;;11.40;4.60;;;19.30;99.90;;;;;;5017144;28;20050;-76
2022/05/16 09:55:54;;;;;;;11.03;4.43;;;19.30;99.90;;;;;;5018070;28;20057;-75
2022/05/16 09:58:52;;;;;;;13.38;4.35;;;19.30;99.90;;;;;;5012400;28;20073;-78
2022/05/16 10:01:35;;;;;;;14.68;3.88;;;19.30;99.90;;;;;;5018023;28;20592;-76
2022/05/16 10:04:20;;;;;;;14.25;3.42;;;19.20;99.90;;;;;;5017940;28;20046;-77
2022/05/16 10:07:03;;;;;;;9.48;3.63;;;19.20;99.90;;;;;;5017915;28;20056;-77
2022/05/16 10:09:37;;;;;;;15.80;4.38;;;19.30;99.90;;;;;;5001091;28;20049;-78
2022/05/16 10:12:08;;;;;;;18.08;4.57;;;19.20;99.90;;;;;;5016995;28;20049;-77
2022/05/16 10:14:37;;;;;;;10.75;4.30;;;19.10;99.90;;;;;;5000667;28;20038;-76
2022/05/16 10:17:07;;;;;;;10.77;3.70;;;19.10;99.90;;;;;;5017776;28;20046;-77
2022/05/16 10:19:39;;;;;;;13.13;4.07;;;19.10;99.90;;;;;;5016810;28;20049;-77
2022/05/16 10:22:21;;;;;;;14.38;3.72;;;19.20;99.90;;;;;;5017366;28;20046;-76
2022/05/16 10:24:53;;;;;;;12.82;3.38;;;19.40;99.90;;;;;;5016752;28;20056;-75
2022/05/16 10:27:31;;;;;;;12.90;3.30;;;19.50;99.90;;;;;;5017552;28;20061;-76
2022/05/16 10:30:04;;;;;;;12.30;3.45;;;19.60;99.90;;;;;;5016753;28;20054;-78
2022/05/16 10:35:47;;;;;;;15.88;3.58;;;19.60;99.90;;;;;;5017360;28;20464;-76
2022/05/16 10:38:32;;;;;;;13.77;3.60;;;19.40;99.90;;;;;;5014225;28;20061;-76
2022/05/16 10:41:04;;;;;;;11.63;3.60;;;19.30;99.90;;;;;;5017626;28;20042;-78
2022/05/16 10:43:40;;;;;;;14.15;4.00;;;19.20;99.90;;;;;;5017431;28;20048;-78
2022/05/16 10:46:27;;;;;;;13.73;3.92;;;19.00;99.90;;;;;;5016474;28;20074;-77
2022/05/16 10:49:16;;;;;;;12.55;4.25;;;18.90;99.90;;;;;;4998081;28;20050;-76
2022/05/16 10:51:58;;;;;;;13.43;4.97;;;18.90;99.90;;;;;;5005651;28;20060;-78
2022/05/16 10:54:29;;;;;;;19.48;5.68;;;19.00;99.90;;;;;;5017031;28;20050;-78
2022/05/16 10:57:07;;;;;;;18.00;4.78;;;19.10;99.90;;;;;;5017052;28;20046;-78
2022/05/16 10:59:52;;;;;;;14.45;4.30;;;19.50;99.90;;;;;;5016684;28;20041;-77
2022/05/16 11:02:31;;;;;;;17.98;5.18;;;19.80;99.90;;;;;;5017023;28;20046;-76
2022/05/16 11:05:07;;;;;;;16.02;5.22;;;20.10;99.90;;;;;;5016338;28;20057;-79
2022/05/16 11:08:04;;;;;;;15.38;5.20;;;20.20;99.90;;;;;;5000061;28;20053;-75
2022/05/16 11:10:39;;;;;;;15.20;4.75;;;20.30;99.90;;;;;;4992200;28;20057;-77
2022/05/16 11:13:20;;;;;;;16.70;5.43;;;20.30;99.90;;;;;;5016666;28;20068;-78
2022/05/16 11:15:53;;;;;;;15.48;5.20;;;20.40;99.90;;;;;;5000300;28;20049;-79
2022/05/16 11:18:43;;;;;;;16.95;5.40;;;20.50;99.90;;;;;;5016126;28;20045;-78
2022/05/16 11:22:02;;;;;;;17.52;5.47;;;20.50;99.90;;;;;;5000265;28;20049;-78
2022/05/16 11:24:34;;;;;;;15.82;5.05;;;20.50;99.90;;;;;;4991590;28;20061;-80
2022/05/16 11:27:22;;;;;;;14.98;4.80;;;20.50;99.90;;;;;;5017066;28;20049;-80
2022/05/16 11:30:11;;;;;;;17.67;4.75;;;20.60;99.90;;;;;;5016789;28;20045;-81
2022/05/16 11:33:03;;;;;;;17.33;5.03;;;20.60;99.90;;;;;;5015744;28;20049;-79
2022/05/16 11:35:45;;;;;;;15.73;4.90;;;20.70;99.90;;;;;;5017127;28;20373;-78
2022/05/16 11:38:21;;;;;;;15.55;4.40;;;20.80;99.90;;;;;;5016104;28;20487;-79
2022/05/16 11:40:59;;;;;;;17.15;4.03;;;20.90;99.90;;;;;;5015758;28;20045;-79
2022/05/16 11:43:30;;;;;;;23.15;4.95;;;21.00;99.90;;;;;;5016268;28;20042;-77
2022/05/16 11:46:17;;;;;;;25.15;4.65;;;21.10;99.90;;;;;;4998293;28;20061;-78
2022/05/16 11:49:08;;;;;;;13.13;3.63;;;21.20;99.90;;;;;;5016650;28;20050;-80
2022/05/16 11:52:23;;;;;;;18.20;3.85;;;21.40;99.90;;;;;;4987901;28;20046;-78
2022/05/16 11:54:58;;;;;;;17.15;4.05;;;21.50;99.90;;;;;;4997553;28;20046;-76
2022/05/16 12:03:00;;;;;;;;;;;21.90;99.90;;;;;;4998916;28;20377;-75
2022/05/16 12:05:37;;;;;;;17.02;3.85;;;22.10;99.90;;;;;;4997666;28;19921;-75
2022/05/16 12:08:31;;;;;;;18.67;3.88;;;22.30;99.90;;;;;;5015638;28;20064;-76
2022/05/16 12:11:02;;;;;;;19.70;3.90;;;22.50;99.90;;;;;;5014553;28;20053;-75
2022/05/16 12:13:39;;;;;;;15.25;2.88;;;22.70;99.90;;;;;;4998317;28;20054;-75
2022/05/16 12:16:13;;;;;;;13.70;3.28;;;22.80;99.90;;;;;;5015415;28;20057;-76
2022/05/16 12:18:44;;;;;;;13.63;3.17;;;22.90;99.90;;;;;;5014510;28;20481;-76
2022/05/16 12:21:18;;;;;;;17.25;3.60;;;22.90;99.90;;;;;;5015352;28;20050;-74
2022/05/16 12:23:48;;;;;;;12.30;3.10;;;23.00;99.90;;;;;;5015348;28;20464;-78
2022/05/16 12:26:28;;;;;;;11.35;2.97;;;23.00;99.90;;;;;;4997285;28;20449;-77
2022/05/16 12:29:09;;;;;;;12.00;3.00;;;23.10;99.90;;;;;;5015232;28;20456;-78
2022/05/16 12:31:49;;;;;;;14.48;3.40;;;23.10;99.90;;;;;;5014091;28;20054;-77
2022/05/16 12:34:32;;;;;;;12.73;3.58;;;23.20;99.90;;;;;;5015153;28;20061;-77
2022/05/16 12:37:02;;;;;;;14.18;3.20;;;23.20;99.90;;;;;;5015642;28;20046;-75
2022/05/16 12:39:50;;;;;;;13.00;2.90;;;23.20;99.90;;;;;;5014704;28;20121;-78
2022/05/16 12:42:17;;;;;;;;;;;23.10;99.90;;;;;;5010162;28;20041;-77
2022/05/16 12:44:47;;;;;;;14.55;3.20;;;23.10;99.90;;;;;;5014471;28;19996;-78
2022/05/16 12:47:39;;;;;;;13.95;3.13;;;23.00;99.90;;;;;;5015956;28;20050;-81
2022/05/16 12:50:40;;;;;;;14.77;3.15;;;22.70;99.90;;;;;;5015670;28;20053;-78
2022/05/16 12:53:26;;;;;;;11.52;3.03;;;22.50;99.90;;;;;;5014753;28;20046;-79
2022/05/16 12:56:20;;;;;;;9.93;2.72;;;22.50;99.90;;;;;;5015795;28;20050;-76
2022/05/16 12:59:03;;;;;;;14.55;3.17;;;22.60;99.90;;;;;;4996872;28;20068;-78
2022/05/16 13:01:48;;;;;;;15.65;2.92;;;22.80;99.90;;;;;;5015312;28;20046;-80
2022/05/16 13:04:47;;;;;;;12.30;3.00;;;23.10;99.90;;;;;;5014077;28;20053;-77
2022/05/16 13:07:22;;;;;;;14.43;3.40;;;23.30;99.90;;;;;;5015560;28;20069;-77
2022/05/16 13:09:52;;;;;;;13.68;3.03;;;23.40;99.90;;;;;;5015294;28;20046;-78
2022/05/16 13:12:26;;;;;;;11.75;2.85;;;23.50;99.90;;;;;;5014097;28;20050;-79
2022/05/16 13:15:02;;;;;;;9.40;2.47;;;23.60;99.90;;;;;;5015291;28;20050;-77
2022/05/16 13:17:44;;;;;;;10.30;2.75;;;23.70;99.90;;;;;;5014641;28;20053;-77
2022/05/16 13:20:18;;;;;;;14.75;2.67;;;23.80;99.90;;;;;;4998348;28;20448;-77
2022/05/16 13:22:48;;;;;;;13.77;2.80;;;23.90;99.90;;;;;;5014812;28;20050;-78
2022/05/16 13:25:21;;;;;;;11.80;2.70;;;24.30;99.90;;;;;;5013901;28;20061;-79
2022/05/16 13:30:42;;;;;;;8.82;2.50;;;25.10;98.70;;;;;;5014833;28;20061;-77
2022/05/16 13:33:31;;;;;;;12.38;2.58;;;24.90;98.00;;;;;;4996695;28;20053;-77